Time;durP1;ratioP1;P1;durP2;ratioP2;P2;SDS_P1;SDS_P2;PMS_P1;PMS_P2;Temp;Humidity;BMP_temperature;BMP_pressure;BME280_temperature;BME280_humidity;BME280_pressure;Samples;Min_cycle;Max_cycle;Signal;HPM_P1;HPM_P2
2023/01/23 00:00:30;;;;;;;21.33;15.90;;;7.90;94.60;;;;;;5075255;28;20420;-61
2023/01/23 00:02:56;;;;;;;21.25;17.38;;;7.90;94.40;;;;;;5074475;28;20058;-66
2023/01/23 00:05:21;;;;;;;22.08;17.58;;;7.90;94.40;;;;;;5074516;28;20036;-61
2023/01/23 00:07:47;;;;;;;23.08;17.67;;;7.80;94.40;;;;;;5074043;28;20032;-61
2023/01/23 00:10:13;;;;;;;22.80;18.38;;;7.80;94.40;;;;;;5075610;28;20024;-64
2023/01/23 00:12:43;;;;;;;23.63;18.35;;;7.80;94.40;;;;;;5075703;28;20424;-67
2023/01/23 00:15:10;;;;;;;23.17;17.92;;;7.80;94.60;;;;;;5075703;28;20035;-67
2023/01/23 00:17:36;;;;;;;23.58;17.42;;;7.80;94.50;;;;;;5075518;28;20023;-60
2023/01/23 00:20:03;;;;;;;25.00;19.10;;;7.80;94.50;;;;;;5075347;28;20353;-64
2023/01/23 00:22:29;;;;;;;21.15;18.33;;;7.80;94.50;;;;;;5075558;28;20028;-61
2023/01/23 00:24:54;;;;;;;25.23;18.92;;;7.80;94.60;;;;;;5075276;28;20032;-68
2023/01/23 00:27:20;;;;;;;26.10;18.40;;;7.80;94.60;;;;;;5057455;28;20113;-67
2023/01/23 00:29:46;;;;;;;24.33;18.60;;;7.80;94.60;;;;;;5075108;28;20029;-62
2023/01/23 00:32:12;;;;;;;27.48;19.30;;;7.80;94.50;;;;;;5075584;28;20047;-64
2023/01/23 00:34:37;;;;;;;24.85;18.67;;;7.70;94.60;;;;;;5075255;28;20033;-59
2023/01/23 00:37:03;;;;;;;26.35;19.63;;;7.70;94.60;;;;;;5075413;28;20032;-67
2023/01/23 00:39:29;;;;;;;25.80;17.80;;;7.70;94.70;;;;;;5075780;28;20024;-60
2023/01/23 00:41:54;;;;;;;24.85;17.80;;;7.70;94.70;;;;;;5075403;28;20024;-60
2023/01/23 00:44:20;;;;;;;24.40;18.58;;;7.70;94.70;;;;;;5074953;28;20211;-59
2023/01/23 00:46:46;;;;;;;27.00;18.95;;;7.70;94.70;;;;;;5075298;28;20385;-59
2023/01/23 00:49:12;;;;;;;24.85;18.15;;;7.70;94.70;;;;;;5074392;28;20050;-60
2023/01/23 00:51:38;;;;;;;27.55;19.00;;;7.70;94.70;;;;;;5075054;28;20435;-60
2023/01/23 00:54:03;;;;;;;24.95;19.95;;;7.70;94.70;;;;;;5074714;28;20034;-59
2023/01/23 00:56:29;;;;;;;24.75;18.85;;;7.70;94.80;;;;;;5074890;28;20108;-59
2023/01/23 00:58:55;;;;;;;25.30;18.50;;;7.70;94.80;;;;;;5074793;28;20013;-59
2023/01/23 01:01:21;;;;;;;23.75;18.52;;;7.70;94.80;;;;;;5074969;28;20028;-59
2023/01/23 01:03:47;;;;;;;26.85;19.05;;;7.70;94.90;;;;;;5074819;28;20032;-59
2023/01/23 01:06:14;;;;;;;27.77;20.05;;;7.70;94.90;;;;;;5075086;28;20100;-59
2023/01/23 01:08:40;;;;;;;26.23;20.08;;;7.70;94.90;;;;;;5074981;28;20029;-59
2023/01/23 01:11:06;;;;;;;29.90;20.52;;;7.70;94.80;;;;;;5074467;28;20036;-59
2023/01/23 01:13:32;;;;;;;24.83;18.98;;;7.70;94.80;;;;;;5074649;28;20046;-59
2023/01/23 01:16:00;;;;;;;26.60;19.63;;;7.70;94.80;;;;;;5074640;28;20071;-59
2023/01/23 01:18:26;;;;;;;23.65;19.15;;;7.60;94.80;;;;;;5074794;28;20027;-59
2023/01/23 01:20:53;;;;;;;23.00;19.27;;;7.60;94.80;;;;;;5074581;28;20082;-59
2023/01/23 01:23:20;;;;;;;25.27;19.10;;;7.60;94.80;;;;;;5074447;28;20017;-59
2023/01/23 01:25:45;;;;;;;24.70;19.42;;;7.60;94.90;;;;;;5074132;28;20737;-59
2023/01/23 01:28:11;;;;;;;25.13;18.80;;;7.60;94.90;;;;;;5073990;28;20115;-59
2023/01/23 01:30:37;;;;;;;25.38;19.42;;;7.60;94.90;;;;;;5074174;28;20166;-59
2023/01/23 01:33:03;;;;;;;24.23;20.65;;;7.60;94.90;;;;;;5074280;28;20071;-59
2023/01/23 01:35:28;;;;;;;26.73;20.05;;;7.60;94.90;;;;;;5056169;28;20469;-59
2023/01/23 01:37:54;;;;;;;22.58;18.85;;;7.60;95.00;;;;;;5074235;28;20021;-59
2023/01/23 01:40:25;;;;;;;27.58;19.95;;;7.60;95.00;;;;;;5074043;28;20031;-59
2023/01/23 01:43:06;;;;;;;25.17;19.33;;;7.60;94.90;;;;;;5071326;28;20029;-59
2023/01/23 01:46:05;;;;;;;23.90;19.17;;;7.60;94.90;;;;;;5071326;28;20028;-60
2023/01/23 01:48:36;;;;;;;27.67;20.48;;;7.60;94.90;;;;;;5073096;28;20241;-59
2023/01/23 01:51:10;;;;;;;25.65;21.27;;;7.60;94.90;;;;;;5073853;28;20055;-60
2023/01/23 01:53:37;;;;;;;27.90;20.88;;;7.60;95.00;;;;;;5074055;28;20378;-61
2023/01/23 01:56:03;;;;;;;26.50;19.63;;;7.60;95.00;;;;;;5073947;28;20039;-59
2023/01/23 01:58:29;;;;;;;25.20;19.60;;;7.50;95.00;;;;;;5073192;28;20036;-61
2023/01/23 02:00:55;;;;;;;26.35;20.90;;;7.50;95.10;;;;;;5072737;28;20025;-62
2023/01/23 02:03:22;;;;;;;27.40;20.67;;;7.60;95.10;;;;;;5073877;28;20032;-64
2023/01/23 02:05:49;;;;;;;27.58;21.17;;;7.60;95.10;;;;;;5073535;28;20039;-61
2023/01/23 02:08:30;;;;;;;25.15;20.02;;;7.50;95.10;;;;;;5073622;28;20020;-68
2023/01/23 02:10:56;;;;;;;27.88;19.70;;;7.50;95.10;;;;;;5073324;28;20032;-68
2023/01/23 02:13:31;;;;;;;25.50;20.48;;;7.50;95.10;;;;;;5073092;28;20028;-62
2023/01/23 02:15:59;;;;;;;26.55;20.63;;;7.50;95.20;;;;;;5073446;28;20024;-63
2023/01/23 02:18:27;;;;;;;25.38;19.63;;;7.50;95.30;;;;;;5073386;28;20038;-61
2023/01/23 02:20:55;;;;;;;23.73;19.17;;;7.50;95.30;;;;;;5073065;28;20056;-67
2023/01/23 02:23:54;;;;;;;24.55;20.17;;;7.50;95.30;;;;;;5073422;28;20024;-61
2023/01/23 02:26:26;;;;;;;24.30;19.85;;;7.50;95.30;;;;;;5072835;28;20089;-65
2023/01/23 02:28:52;;;;;;;23.65;19.08;;;7.50;95.30;;;;;;5073424;28;20044;-63
2023/01/23 02:31:18;;;;;;;25.30;19.20;;;7.50;95.40;;;;;;5072919;28;20720;-67
2023/01/23 02:33:52;;;;;;;24.05;19.83;;;7.50;95.30;;;;;;5073152;28;20024;-67
2023/01/23 02:36:21;;;;;;;27.35;20.13;;;7.50;95.40;;;;;;5072772;28;20027;-67
2023/01/23 02:38:53;;;;;;;24.63;19.63;;;7.40;95.40;;;;;;5073485;28;20070;-64
2023/01/23 02:41:26;;;;;;;26.15;20.05;;;7.40;95.40;;;;;;5072959;28;20020;-64
2023/01/23 02:43:53;;;;;;;25.13;19.85;;;7.50;95.40;;;;;;5072966;28;20027;-62
2023/01/23 02:46:19;;;;;;;25.23;19.55;;;7.50;95.40;;;;;;5073135;28;20025;-65
2023/01/23 02:48:46;;;;;;;27.52;19.98;;;7.50;95.40;;;;;;5072685;28;20077;-59
2023/01/23 02:51:12;;;;;;;28.58;21.40;;;7.40;95.40;;;;;;5073012;28;20024;-63
2023/01/23 02:53:38;;;;;;;26.15;21.15;;;7.50;95.40;;;;;;5072871;28;20055;-68
2023/01/23 02:56:04;;;;;;;28.85;22.20;;;7.40;95.40;;;;;;5072302;28;20478;-65
2023/01/23 03:01:14;;;;;;;26.85;21.67;;;7.40;95.50;;;;;;5073128;28;20075;-68
2023/01/23 03:03:43;;;;;;;27.73;20.38;;;7.40;95.50;;;;;;5072503;28;20056;-68
2023/01/23 03:06:10;;;;;;;28.05;21.45;;;7.40;95.50;;;;;;5072880;28;20036;-62
2023/01/23 03:08:46;;;;;;;30.20;22.05;;;7.40;95.50;;;;;;5072541;28;20040;-67
2023/01/23 03:11:13;;;;;;;26.10;20.45;;;7.40;95.50;;;;;;5072122;28;20032;-68
2023/01/23 03:13:38;;;;;;;27.65;20.95;;;7.40;95.50;;;;;;5072481;28;20082;-66
2023/01/23 03:16:05;;;;;;;26.58;20.25;;;7.40;95.50;;;;;;5072454;28;20025;-66
2023/01/23 03:18:32;;;;;;;29.35;20.58;;;7.30;95.50;;;;;;5072303;28;20016;-68
2023/01/23 03:21:01;;;;;;;26.23;20.63;;;7.30;95.50;;;;;;5072598;28;20024;-61
2023/01/23 03:23:27;;;;;;;25.42;21.08;;;7.40;95.90;;;;;;5072398;28;20031;-67
2023/01/23 03:25:57;;;;;;;26.65;19.92;;;7.40;95.60;;;;;;5071956;28;20036;-67
2023/01/23 03:31:07;;;;;;;22.95;19.73;;;7.40;95.70;;;;;;5072778;28;20052;-66
2023/01/23 03:33:33;;;;;;;24.00;19.50;;;7.40;95.60;;;;;;5072495;28;20021;-61
2023/01/23 03:35:59;;;;;;;24.65;18.25;;;7.30;95.60;;;;;;5072310;28;20032;-67
2023/01/23 03:38:25;;;;;;;23.23;19.23;;;7.30;95.70;;;;;;5071869;28;20024;-68
2023/01/23 03:43:35;;;;;;;22.60;19.42;;;7.30;95.70;;;;;;5072540;28;20040;-68
2023/01/23 03:46:00;;;;;;;22.48;17.92;;;7.30;95.70;;;;;;5072359;28;20024;-68
2023/01/23 03:48:26;;;;;;;20.80;18.23;;;7.30;95.70;;;;;;5072156;28;20462;-63
2023/01/23 03:50:51;;;;;;;22.00;18.42;;;7.30;95.70;;;;;;5072035;28;20501;-64
2023/01/23 03:53:17;;;;;;;25.05;19.02;;;7.30;95.70;;;;;;5071886;28;20465;-64
2023/01/23 03:55:46;;;;;;;24.13;18.80;;;7.30;95.80;;;;;;5072243;28;20062;-65
2023/01/23 03:58:12;;;;;;;24.90;19.73;;;7.30;95.80;;;;;;5072112;28;20181;-67
2023/01/23 04:00:37;;;;;;;27.38;19.30;;;7.30;95.90;;;;;;5072066;28;20167;-68
2023/01/23 04:03:03;;;;;;;24.23;19.92;;;7.30;95.90;;;;;;5072018;28;20028;-67
2023/01/23 04:05:29;;;;;;;24.17;20.05;;;7.20;95.90;;;;;;5071943;28;20042;-65
2023/01/23 04:07:54;;;;;;;25.83;19.73;;;7.20;95.90;;;;;;5072296;28;20028;-65
2023/01/23 04:10:20;;;;;;;27.15;20.67;;;7.20;96.00;;;;;;5071829;28;20382;-66
2023/01/23 04:12:45;;;;;;;28.38;22.40;;;7.20;96.00;;;;;;5072081;28;20086;-62
2023/01/23 04:15:11;;;;;;;29.48;22.25;;;7.20;96.00;;;;;;5071791;28;20051;-63
2023/01/23 04:17:37;;;;;;;29.08;21.65;;;7.30;96.00;;;;;;5071989;28;20021;-61
2023/01/23 04:20:03;;;;;;;27.88;22.02;;;7.20;96.00;;;;;;5071965;28;20584;-68
2023/01/23 04:22:28;;;;;;;29.27;21.67;;;7.30;96.00;;;;;;5071551;28;20152;-65
2023/01/23 04:24:54;;;;;;;29.67;23.13;;;7.20;96.00;;;;;;5074984;28;20055;-67
2023/01/23 04:27:19;;;;;;;28.77;23.23;;;7.20;96.00;;;;;;5057331;28;20056;-58
2023/01/23 04:29:46;;;;;;;32.10;22.45;;;7.20;96.10;;;;;;5075279;28;20024;-58
2023/01/23 04:32:12;;;;;;;32.72;23.42;;;7.30;96.00;;;;;;5075588;28;20033;-58
2023/01/23 04:34:38;;;;;;;27.33;22.55;;;7.20;96.00;;;;;;5057305;28;20123;-60
2023/01/23 04:37:04;;;;;;;31.73;24.35;;;7.20;96.10;;;;;;5074970;28;20029;-59
2023/01/23 04:39:31;;;;;;;28.45;23.42;;;7.20;96.10;;;;;;5075241;28;20477;-59
2023/01/23 04:41:56;;;;;;;31.42;24.02;;;7.20;96.10;;;;;;5075371;28;20025;-63
2023/01/23 04:44:23;;;;;;;36.72;25.98;;;7.20;96.10;;;;;;5075274;28;20480;-67
2023/01/23 04:46:51;;;;;;;35.03;25.13;;;7.20;96.10;;;;;;5075217;28;20025;-65
2023/01/23 04:49:18;;;;;;;32.17;25.48;;;7.20;96.20;;;;;;5075169;28;20020;-65
2023/01/23 04:51:44;;;;;;;32.17;26.45;;;7.20;96.20;;;;;;5074599;28;20045;-65
2023/01/23 04:54:11;;;;;;;35.22;26.48;;;7.20;96.20;;;;;;5075118;28;20082;-65
2023/01/23 04:56:36;;;;;;;36.95;26.35;;;7.20;96.20;;;;;;5075146;28;20108;-67
2023/01/23 04:59:02;;;;;;;35.47;26.08;;;7.20;96.30;;;;;;5074826;28;20091;-66
2023/01/23 05:01:28;;;;;;;35.85;26.63;;;7.20;96.30;;;;;;5075024;28;20027;-66
2023/01/23 05:03:53;;;;;;;32.33;25.70;;;7.20;96.30;;;;;;5074881;28;20029;-68
2023/01/23 05:06:19;;;;;;;34.28;26.10;;;7.20;96.30;;;;;;5074146;28;20019;-64
2023/01/23 05:08:44;;;;;;;33.15;25.85;;;7.10;96.30;;;;;;5074788;28;20044;-68
2023/01/23 05:11:11;;;;;;;34.10;24.88;;;7.20;96.30;;;;;;5074586;28;20036;-67
2023/01/23 05:13:37;;;;;;;34.30;25.50;;;7.10;96.40;;;;;;5074661;28;20020;-62
2023/01/23 05:16:03;;;;;;;38.92;26.17;;;7.10;96.40;;;;;;5074432;28;20031;-68
2023/01/23 05:18:28;;;;;;;33.45;24.17;;;7.10;96.40;;;;;;5074511;28;20027;-67
2023/01/23 05:20:54;;;;;;;31.63;24.90;;;7.10;96.40;;;;;;5074278;28;20089;-65
2023/01/23 05:23:19;;;;;;;30.77;24.05;;;7.10;96.50;;;;;;5074674;28;20035;-63
2023/01/23 05:25:45;;;;;;;33.80;23.77;;;7.10;96.50;;;;;;5074019;28;20544;-67
2023/01/23 05:28:11;;;;;;;28.95;22.95;;;7.10;96.50;;;;;;5074491;28;20149;-67
2023/01/23 05:30:37;;;;;;;29.98;22.48;;;7.10;96.80;;;;;;5074205;28;20024;-66
2023/01/23 05:33:03;;;;;;;29.95;24.00;;;7.10;96.50;;;;;;5073852;28;20153;-61
2023/01/23 05:35:28;;;;;;;28.58;23.52;;;7.10;96.60;;;;;;5073692;28;20482;-68
2023/01/23 05:37:54;;;;;;;26.83;21.30;;;7.10;96.60;;;;;;5074353;28;20039;-61
2023/01/23 05:40:20;;;;;;;27.48;22.20;;;7.10;96.60;;;;;;5074046;28;20111;-64
2023/01/23 05:42:46;;;;;;;28.90;21.33;;;7.10;96.60;;;;;;5074070;28;20025;-61
2023/01/23 05:45:12;;;;;;;25.20;19.83;;;7.10;96.60;;;;;;5074061;28;20471;-69
2023/01/23 05:47:38;;;;;;;25.52;19.33;;;7.00;96.40;;;;;;5074083;28;20035;-69
2023/01/23 05:50:06;;;;;;;24.40;19.38;;;7.00;95.70;;;;;;5073557;28;20033;-63
2023/01/23 05:52:33;;;;;;;24.20;19.38;;;7.10;95.30;;;;;;5073853;28;20021;-66
2023/01/23 05:54:58;;;;;;;29.75;19.05;;;7.10;95.10;;;;;;5062482;28;20140;-64
2023/01/23 05:57:24;;;;;;;24.90;19.90;;;7.10;95.80;;;;;;5067358;28;20119;-66
2023/01/23 05:59:49;;;;;;;26.10;19.88;;;7.10;96.10;;;;;;5071862;28;20052;-61
2023/01/23 06:02:15;;;;;;;23.63;19.77;;;7.20;96.30;;;;;;5063748;28;20474;-66
2023/01/23 06:04:41;;;;;;;31.77;21.77;;;7.20;96.30;;;;;;5068555;28;20033;-67
2023/01/23 06:07:12;;;;;;;27.55;20.17;;;7.20;96.30;;;;;;5064632;28;20024;-69
2023/01/23 06:09:37;;;;;;;26.83;21.42;;;7.20;96.30;;;;;;5069928;28;20055;-65
2023/01/23 06:12:03;;;;;;;25.85;19.90;;;7.20;96.40;;;;;;5073463;28;20067;-68
2023/01/23 06:14:28;;;;;;;24.73;20.05;;;7.20;96.40;;;;;;5073589;28;20090;-62
2023/01/23 06:16:54;;;;;;;27.48;20.00;;;7.20;96.40;;;;;;5072919;28;20035;-66
2023/01/23 06:19:19;;;;;;;28.55;20.75;;;7.20;96.40;;;;;;5072790;28;20359;-69
2023/01/23 06:21:45;;;;;;;25.63;20.65;;;7.10;96.50;;;;;;5073206;28;20535;-66
2023/01/23 06:24:10;;;;;;;26.00;20.92;;;7.10;96.50;;;;;;5073344;28;20522;-68
2023/01/23 06:26:36;;;;;;;27.38;20.27;;;7.10;96.50;;;;;;5073128;28;20044;-69
2023/01/23 06:29:01;;;;;;;26.05;20.40;;;7.10;96.60;;;;;;5069261;28;20025;-65
2023/01/23 06:31:29;;;;;;;28.63;21.40;;;7.10;96.60;;;;;;5057531;28;20098;-63
2023/01/23 06:33:55;;;;;;;28.77;21.33;;;7.10;96.60;;;;;;5062703;28;20400;-68
2023/01/23 06:36:21;;;;;;;26.35;20.40;;;7.10;96.60;;;;;;5071997;28;20023;-65
2023/01/23 06:38:47;;;;;;;27.83;20.63;;;7.10;96.80;;;;;;5072853;28;20474;-67
2023/01/23 06:41:12;;;;;;;27.65;20.83;;;7.10;96.60;;;;;;5074927;28;20031;-64
2023/01/23 06:43:38;;;;;;;30.05;20.90;;;7.10;96.70;;;;;;5069514;28;20040;-66
2023/01/23 06:46:06;;;;;;;26.77;20.67;;;7.10;96.80;;;;;;5073965;28;20032;-61
2023/01/23 06:48:31;;;;;;;27.52;20.90;;;7.10;96.70;;;;;;5055569;28;20035;-64
2023/01/23 06:50:59;;;;;;;26.13;21.23;;;7.10;96.70;;;;;;5067420;28;20855;-60
2023/01/23 06:53:24;;;;;;;27.60;20.08;;;7.10;96.70;;;;;;5075081;28;20024;-68
2023/01/23 06:55:50;;;;;;;23.85;20.15;;;7.10;96.70;;;;;;5074348;28;20024;-68
2023/01/23 06:58:15;;;;;;;24.30;20.40;;;7.10;96.70;;;;;;5076842;28;20392;-65
2023/01/23 07:00:43;;;;;;;22.35;19.00;;;7.10;96.70;;;;;;5070244;28;20021;-60
2023/01/23 07:03:10;;;;;;;28.42;20.45;;;7.10;96.80;;;;;;5075091;28;20032;-66
2023/01/23 07:05:38;;;;;;;26.45;19.85;;;7.10;96.70;;;;;;5061883;28;20147;-58
2023/01/23 07:08:04;;;;;;;28.30;20.95;;;7.10;96.80;;;;;;5069003;28;20121;-60
2023/01/23 07:10:31;;;;;;;28.70;20.98;;;7.10;97.00;;;;;;5072474;28;20032;-59
2023/01/23 07:12:56;;;;;;;27.42;19.67;;;7.10;96.80;;;;;;5072579;28;20051;-62
2023/01/23 07:15:22;;;;;;;30.45;20.75;;;7.00;96.80;;;;;;5071023;28;20024;-60
2023/01/23 07:17:47;;;;;;;28.33;20.70;;;7.10;96.80;;;;;;5072268;28;20078;-61
2023/01/23 07:20:14;;;;;;;27.27;20.05;;;7.10;96.80;;;;;;5070541;28;20060;-59
2023/01/23 07:22:40;;;;;;;22.15;16.80;;;7.10;96.80;;;;;;5073511;28;20016;-58
2023/01/23 07:25:06;;;;;;;19.65;16.73;;;7.30;98.10;;;;;;5072395;28;20039;-59
2023/01/23 07:27:32;;;;;;;18.40;15.52;;;7.60;97.60;;;;;;5068932;28;20043;-61
2023/01/23 07:29:57;;;;;;;19.85;15.10;;;7.80;97.20;;;;;;5072419;28;20029;-60
2023/01/23 07:32:23;;;;;;;20.52;15.00;;;8.00;96.70;;;;;;5072066;28;20017;-62
2023/01/23 07:34:48;;;;;;;19.08;15.48;;;8.20;96.60;;;;;;5070561;28;20025;-67
2023/01/23 07:37:14;;;;;;;22.15;15.88;;;8.20;96.50;;;;;;5069838;28;20547;-58
2023/01/23 07:39:39;;;;;;;19.80;15.43;;;8.30;96.10;;;;;;5083492;28;20449;-67
2023/01/23 07:42:05;;;;;;;21.15;15.00;;;8.40;96.10;;;;;;5078599;28;20435;-62
2023/01/23 07:44:30;;;;;;;22.13;14.63;;;8.50;96.10;;;;;;5054681;28;20059;-65
2023/01/23 07:46:56;;;;;;;19.67;15.02;;;8.50;96.00;;;;;;5071844;28;20470;-64
2023/01/23 07:49:21;;;;;;;19.63;15.23;;;8.50;95.80;;;;;;5072139;28;20105;-65
2023/01/23 07:51:47;;;;;;;22.08;15.77;;;8.50;95.90;;;;;;5071860;28;20033;-66
2023/01/23 07:54:13;;;;;;;17.10;14.85;;;8.50;96.10;;;;;;5071915;28;20039;-66
2023/01/23 07:56:38;;;;;;;18.55;15.15;;;8.40;96.30;;;;;;5072139;28;20486;-65
2023/01/23 07:59:04;;;;;;;42.38;38.15;;;8.50;96.30;;;;;;5072198;28;20481;-67
2023/01/23 08:01:29;;;;;;;25.55;22.65;;;8.20;95.10;;;;;;5075721;28;20033;-67
2023/01/23 08:03:55;;;;;;;27.13;22.38;;;6.80;97.40;;;;;;5074133;28;20032;-67
2023/01/23 08:06:20;;;;;;;28.33;23.63;;;5.90;99.40;;;;;;5074014;28;20486;-65
2023/01/23 08:08:49;;;;;;;38.65;24.70;;;5.60;99.90;;;;;;5074447;28;20021;-64
2023/01/23 08:11:15;;;;;;;30.40;23.02;;;5.40;99.90;;;;;;5075557;28;20036;-66
2023/01/23 08:13:41;;;;;;;34.88;25.90;;;5.20;99.90;;;;;;5075608;28;20017;-66
2023/01/23 08:16:07;;;;;;;36.00;24.55;;;5.00;99.90;;;;;;5057496;28;20035;-66
2023/01/23 08:18:33;;;;;;;33.88;22.92;;;5.00;99.90;;;;;;5075407;28;20024;-66
2023/01/23 08:21:02;;;;;;;33.03;24.08;;;4.90;99.90;;;;;;5075853;28;20052;-65
2023/01/23 08:23:29;;;;;;;31.27;22.73;;;4.70;99.90;;;;;;5075614;28;20032;-65
2023/01/23 08:25:57;;;;;;;35.42;27.58;;;4.70;99.90;;;;;;5075557;28;20041;-65
2023/01/23 08:28:24;;;;;;;36.08;26.23;;;4.80;99.90;;;;;;5075057;28;20469;-65
2023/01/23 08:30:51;;;;;;;39.30;28.33;;;4.60;99.90;;;;;;5075577;28;20441;-65
2023/01/23 08:33:18;;;;;;;31.30;25.02;;;4.60;99.90;;;;;;5075485;28;20093;-66
2023/01/23 08:35:55;;;;;;;35.38;24.70;;;4.50;99.90;;;;;;5075214;28;20052;-65
2023/01/23 08:38:21;;;;;;;34.20;24.10;;;4.50;99.90;;;;;;5057265;28;20056;-65
2023/01/23 08:40:48;;;;;;;36.15;27.27;;;4.50;99.90;;;;;;5075398;28;20028;-66
2023/01/23 08:43:16;;;;;;;33.90;26.45;;;4.50;99.90;;;;;;5074975;28;20032;-66
2023/01/23 08:45:49;;;;;;;35.58;26.25;;;4.50;99.90;;;;;;5075284;28;20024;-66
2023/01/23 08:48:15;;;;;;;35.30;25.00;;;4.50;99.90;;;;;;5075251;28;20469;-67
2023/01/23 08:50:41;;;;;;;34.38;23.95;;;4.50;99.90;;;;;;5074936;28;20021;-65
2023/01/23 08:53:07;;;;;;;36.65;24.45;;;4.30;99.90;;;;;;5074969;28;20115;-66
2023/01/23 08:55:34;;;;;;;34.67;24.23;;;4.30;99.90;;;;;;5075154;28;20028;-65
2023/01/23 08:58:01;;;;;;;35.45;27.98;;;4.30;99.90;;;;;;5075092;28;20397;-65
2023/01/23 09:00:26;;;;;;;35.33;26.55;;;4.30;99.90;;;;;;5074762;28;20032;-66
2023/01/23 09:02:52;;;;;;;39.05;26.92;;;4.40;99.90;;;;;;5074968;28;20484;-65
2023/01/23 09:05:17;;;;;;;37.47;26.60;;;4.40;99.90;;;;;;5074796;28;20470;-65
2023/01/23 09:07:43;;;;;;;41.38;28.13;;;4.50;99.90;;;;;;5075039;28;20152;-66
2023/01/23 09:10:11;;;;;;;36.45;27.38;;;4.50;99.90;;;;;;5074124;28;20182;-63
2023/01/23 09:12:38;;;;;;;35.70;25.65;;;4.40;99.90;;;;;;5074613;28;20035;-67
2023/01/23 09:15:03;;;;;;;37.03;27.98;;;4.40;99.90;;;;;;5074605;28;20023;-65
2023/01/23 09:17:29;;;;;;;35.47;26.80;;;4.40;99.90;;;;;;5074646;28;20028;-66
2023/01/23 09:19:55;;;;;;;41.42;30.05;;;4.40;99.90;;;;;;5074615;28;20017;-63
2023/01/23 09:22:20;;;;;;;40.15;29.10;;;4.50;99.90;;;;;;5074467;28;20038;-62
2023/01/23 09:24:46;;;;;;;35.72;25.98;;;4.40;99.90;;;;;;5074644;28;20041;-66
2023/01/23 09:27:11;;;;;;;37.72;27.05;;;4.40;99.90;;;;;;5074111;28;20033;-66
2023/01/23 09:29:37;;;;;;;40.28;28.70;;;4.40;99.90;;;;;;5073379;28;20024;-66
2023/01/23 09:32:03;;;;;;;40.80;27.95;;;4.40;99.90;;;;;;5073751;28;20437;-65
2023/01/23 09:34:29;;;;;;;38.25;26.05;;;4.60;99.90;;;;;;5074265;28;20469;-63
2023/01/23 09:36:54;;;;;;;39.50;26.63;;;4.60;99.90;;;;;;5072799;28;20106;-65
2023/01/23 09:39:20;;;;;;;38.13;26.33;;;4.60;99.90;;;;;;5062978;28;20494;-65
2023/01/23 09:41:47;;;;;;;38.60;27.25;;;4.60;99.90;;;;;;5053941;28;20502;-66
2023/01/23 09:44:13;;;;;;;45.53;32.10;;;4.60;99.90;;;;;;5054665;28;20104;-68
2023/01/23 09:46:48;;;;;;;43.80;30.67;;;4.60;99.90;;;;;;5062891;28;21103;-67
2023/01/23 09:49:40;;;;;;;50.92;31.10;;;4.60;99.90;;;;;;5087800;28;20189;-65
2023/01/23 09:52:22;;;;;;;47.33;34.05;;;4.50;99.90;;;;;;5073362;28;20044;-65
2023/01/23 09:55:08;;;;;;;50.13;35.60;;;4.40;99.90;;;;;;5077388;28;20043;-69
2023/01/23 09:57:53;;;;;;;49.03;34.15;;;4.30;99.90;;;;;;5093763;28;20032;-69
2023/01/23 10:00:24;;;;;;;49.45;35.45;;;4.20;99.90;;;;;;5093725;28;20050;-69
2023/01/23 10:02:52;;;;;;;48.92;34.10;;;4.20;99.90;;;;;;5071553;28;20461;-69
2023/01/23 10:05:24;;;;;;;51.15;33.85;;;4.30;99.90;;;;;;5073681;28;20048;-68
2023/01/23 10:08:10;;;;;;;44.13;32.03;;;4.40;99.90;;;;;;5071986;28;20485;-69
2023/01/23 10:10:56;;;;;;;44.03;29.70;;;4.40;99.90;;;;;;5072129;28;20405;-69
2023/01/23 10:13:39;;;;;;;42.60;29.52;;;4.50;99.90;;;;;;5071344;28;20506;-69
2023/01/23 10:16:32;;;;;;;43.85;32.78;;;4.50;99.90;;;;;;5075663;28;20568;-69
2023/01/23 10:19:16;;;;;;;40.78;27.73;;;4.40;99.90;;;;;;5089324;28;20103;-68
2023/01/23 10:22:02;;;;;;;39.60;29.85;;;4.40;99.90;;;;;;5070542;28;20050;-68
2023/01/23 10:25:09;;;;;;;39.70;28.05;;;4.40;99.90;;;;;;5070875;28;20082;-66
2023/01/23 10:27:41;;;;;;;38.85;26.42;;;4.40;99.90;;;;;;5062884;28;20052;-65
2023/01/23 10:30:33;;;;;;;44.15;30.98;;;4.60;99.90;;;;;;5073128;28;20021;-70
2023/01/23 10:33:07;;;;;;;41.50;28.75;;;4.70;99.90;;;;;;5072895;28;20059;-60
2023/01/23 10:35:49;;;;;;;39.03;28.73;;;4.70;99.90;;;;;;5073526;28;20070;-67
2023/01/23 10:38:23;;;;;;;40.40;28.75;;;4.60;99.90;;;;;;5073314;28;20124;-70
2023/01/23 10:43:34;;;;;;;42.42;30.17;;;4.60;99.90;;;;;;5073712;28;20106;-66
2023/01/23 10:46:00;;;;;;;46.17;31.52;;;4.60;99.90;;;;;;5072941;28;20025;-69
2023/01/23 10:48:44;;;;;;;38.63;26.70;;;4.60;99.90;;;;;;5067602;28;20028;-69
2023/01/23 10:51:23;;;;;;;36.15;27.40;;;4.90;99.90;;;;;;5071250;28;20036;-69
2023/01/23 10:54:21;;;;;;;37.28;26.63;;;5.40;99.90;;;;;;5077682;28;20427;-69
2023/01/23 10:56:57;;;;;;;36.78;25.52;;;5.90;99.90;;;;;;5076542;28;20085;-69
2023/01/23 10:59:52;;;;;;;35.08;26.63;;;6.10;99.90;;;;;;5077059;28;20020;-70
2023/01/23 11:02:27;;;;;;;37.22;24.92;;;6.40;99.90;;;;;;5043961;28;20421;-69
2023/01/23 11:04:53;;;;;;;31.65;22.95;;;6.50;99.90;;;;;;5071506;28;20020;-70
2023/01/23 11:07:20;;;;;;;32.10;23.98;;;6.60;99.90;;;;;;5070691;28;20102;-69
2023/01/23 11:09:48;;;;;;;35.60;24.75;;;6.80;99.90;;;;;;5071999;28;20126;-70
2023/01/23 11:12:21;;;;;;;35.35;25.90;;;6.90;99.90;;;;;;5072560;28;20032;-65
2023/01/23 11:14:48;;;;;;;32.47;24.50;;;7.00;99.90;;;;;;5071462;28;20038;-63
2023/01/23 11:17:22;;;;;;;33.13;25.50;;;7.00;99.90;;;;;;5072528;28;20062;-70
2023/01/23 11:19:53;;;;;;;32.10;24.65;;;7.10;99.90;;;;;;5069118;28;20029;-70
2023/01/23 11:22:36;;;;;;;32.55;24.65;;;7.20;99.90;;;;;;5069452;28;20017;-69
2023/01/23 11:25:33;;;;;;;35.65;26.00;;;7.20;99.70;;;;;;5091391;28;20089;-70
2023/01/23 11:28:01;;;;;;;36.70;25.95;;;7.20;99.90;;;;;;5092661;28;20028;-70
2023/01/23 11:30:50;;;;;;;37.85;28.92;;;7.30;99.60;;;;;;5090225;28;20039;-66
2023/01/23 11:33:35;;;;;;;40.88;28.65;;;7.40;99.70;;;;;;5075955;28;20028;-70
2023/01/23 11:36:15;;;;;;;37.00;27.88;;;7.50;99.30;;;;;;5058859;28;20056;-66
2023/01/23 11:38:46;;;;;;;34.83;26.92;;;7.40;99.50;;;;;;5091562;28;20032;-66
2023/01/23 11:41:13;;;;;;;33.10;25.80;;;7.40;99.20;;;;;;5096434;28;20039;-66
2023/01/23 11:43:40;;;;;;;36.35;26.75;;;7.40;99.60;;;;;;5098962;28;20179;-69
2023/01/23 11:46:51;;;;;;;35.38;26.27;;;7.50;99.40;;;;;;5098980;28;20023;-69
2023/01/23 11:49:42;;;;;;;36.67;26.75;;;7.50;99.30;;;;;;5016757;28;20030;-67
2023/01/23 11:52:32;;;;;;;33.35;25.35;;;7.50;99.00;;;;;;4986731;28;20061;-68
2023/01/23 11:55:25;;;;;;;33.40;25.63;;;7.60;99.30;;;;;;5082573;28;20475;-66
2023/01/23 11:58:06;;;;;;;37.17;26.75;;;7.50;99.10;;;;;;5099274;28;20494;-71
2023/01/23 12:00:37;;;;;;;36.45;26.98;;;7.60;99.10;;;;;;5098793;28;20107;-66
2023/01/23 12:03:18;;;;;;;34.08;26.10;;;7.60;99.00;;;;;;5099204;28;20028;-70
2023/01/23 12:06:04;;;;;;;29.70;23.40;;;7.60;98.90;;;;;;5098981;28;20035;-70
2023/01/23 12:08:40;;;;;;;29.63;21.45;;;7.60;99.10;;;;;;5098186;28;20036;-70
2023/01/23 12:11:15;;;;;;;30.95;23.73;;;7.60;99.60;;;;;;5099132;28;20040;-64
2023/01/23 12:14:13;;;;;;;32.58;24.58;;;7.70;99.20;;;;;;5098760;28;20016;-65
2023/01/23 12:16:54;;;;;;;34.35;25.55;;;7.70;98.90;;;;;;5099080;28;20128;-70
2023/01/23 12:19:41;;;;;;;31.27;24.52;;;7.90;98.20;;;;;;5099384;28;20071;-71
2023/01/23 12:22:21;;;;;;;34.63;25.35;;;7.90;98.60;;;;;;5098786;28;20024;-70
2023/01/23 12:24:52;;;;;;;29.35;22.45;;;7.80;98.50;;;;;;5098724;28;20044;-71
2023/01/23 12:27:41;;;;;;;36.13;24.83;;;7.80;98.70;;;;;;5098899;28;20492;-70
2023/01/23 12:30:29;;;;;;;30.63;23.50;;;7.90;98.60;;;;;;5098624;28;20023;-70
2023/01/23 12:33:38;;;;;;;28.85;23.25;;;7.90;98.40;;;;;;5099085;28;20024;-67
2023/01/23 12:36:24;;;;;;;28.52;21.05;;;7.90;98.50;;;;;;5098312;28;20024;-70
2023/01/23 12:39:05;;;;;;;30.27;23.25;;;8.00;98.10;;;;;;5099022;28;20395;-65
2023/01/23 12:42:02;;;;;;;24.92;20.80;;;8.10;97.70;;;;;;5099053;28;20027;-64
2023/01/23 12:44:40;;;;;;;25.33;20.40;;;8.00;98.30;;;;;;5096254;28;20535;-70
2023/01/23 12:47:36;;;;;;;26.05;20.55;;;8.10;98.10;;;;;;5095495;28;20521;-69
2023/01/23 12:50:13;;;;;;;27.00;21.13;;;8.10;97.80;;;;;;5093341;28;20036;-66
2023/01/23 12:52:46;;;;;;;30.13;21.52;;;8.00;97.90;;;;;;5095412;28;20035;-61
2023/01/23 12:55:27;;;;;;;28.45;21.50;;;8.10;97.90;;;;;;5095279;28;20028;-62
2023/01/23 12:57:55;;;;;;;28.58;21.75;;;8.10;97.70;;;;;;5095339;28;20035;-69
2023/01/23 13:00:39;;;;;;;28.10;20.92;;;8.10;97.90;;;;;;5095245;28;20489;-71